createdAt,value
2023-02-04T00:01:41.658Z,97358.67
2023-02-04T00:04:08.042Z,97358.88
2023-02-04T00:06:34.524Z,97355.59
2023-02-04T00:09:01.169Z,97361.21
2023-02-04T00:11:27.850Z,97354.30
2023-02-04T00:13:54.310Z,97351.89
2023-02-04T00:16:20.907Z,97350.75
2023-02-04T00:18:47.422Z,97351.63
2023-02-04T00:21:13.834Z,97345.15
2023-02-04T00:23:41.511Z,97346.01
2023-02-04T00:26:08.367Z,97345.38
2023-02-04T00:28:35.075Z,97346.53
2023-02-04T00:31:01.737Z,97346.52
2023-02-04T00:33:28.396Z,97338.41
2023-02-04T00:35:54.902Z,97338.66
2023-02-04T00:38:21.706Z,97333.25
2023-02-04T00:40:48.209Z,97333.70
2023-02-04T00:43:14.747Z,97333.81
2023-02-04T00:45:41.258Z,97331.59
2023-02-04T00:48:07.825Z,97330.61
2023-02-04T00:50:34.297Z,97329.42
2023-02-04T00:53:00.777Z,97331.29
2023-02-04T00:55:27.747Z,97337.58
2023-02-04T00:57:54.391Z,97332.99
2023-02-04T01:00:21.172Z,97327.83
2023-02-04T01:02:47.624Z,97322.82
2023-02-04T01:05:14.115Z,97322.55
2023-02-04T01:07:40.693Z,97319.65
2023-02-04T01:10:07.296Z,97315.52
2023-02-04T01:12:34.070Z,97320.13
2023-02-04T01:15:00.818Z,97314.98
2023-02-04T01:17:27.386Z,97313.40
2023-02-04T01:19:53.880Z,97312.33
2023-02-04T01:22:20.981Z,97304.45
2023-02-04T01:24:47.392Z,97302.39
2023-02-04T01:27:13.943Z,97298.44
2023-02-04T01:29:40.380Z,97292.80
2023-02-04T01:32:06.940Z,97287.17
2023-02-04T01:34:33.623Z,97287.81
2023-02-04T01:37:00.108Z,97286.04
2023-02-04T01:39:26.963Z,97287.91
2023-02-04T01:41:53.634Z,97283.32
2023-02-04T01:44:20.699Z,97286.42
2023-02-04T01:46:47.241Z,97285.54
2023-02-04T01:49:14.094Z,97282.53
2023-02-04T01:51:40.835Z,97277.31
2023-02-04T01:54:12.027Z,97276.41
2023-02-04T01:56:40.885Z,97277.94
2023-02-04T01:59:15.995Z,97275.76
2023-02-04T02:01:48.564Z,97274.20
2023-02-04T02:04:18.197Z,97274.64
2023-02-04T02:06:49.704Z,97270.80
2023-02-04T02:09:16.402Z,97263.66
2023-02-04T02:11:43.346Z,97265.04
2023-02-04T02:14:10.191Z,97266.36
2023-02-04T02:16:36.945Z,97265.98
2023-02-04T02:19:05.727Z,97267.80
2023-02-04T02:21:41.013Z,97263.41
2023-02-04T02:24:27.499Z,97259.39
2023-02-04T02:26:56.455Z,97261.21
2023-02-04T02:29:23.929Z,97262.82
2023-02-04T02:31:50.747Z,97265.29
2023-02-04T02:34:18.041Z,97267.12
2023-02-04T02:36:45.462Z,97262.16
2023-02-04T02:39:12.056Z,97259.45
2023-02-04T02:41:38.574Z,97258.75
2023-02-04T02:44:05.415Z,97256.16
2023-02-04T02:46:31.845Z,97257.66
2023-02-04T02:48:58.446Z,97254.46
2023-02-04T02:51:24.997Z,97257.30
2023-02-04T02:53:51.736Z,97258.02
2023-02-04T02:56:19.985Z,97261.95
2023-02-04T02:58:47.122Z,97261.00
2023-02-04T03:01:13.975Z,97260.07
2023-02-04T03:03:48.124Z,97264.69
2023-02-04T03:06:26.441Z,97267.55
2023-02-04T03:08:55.599Z,97271.89
2023-02-04T03:11:22.958Z,97269.80
2023-02-04T03:13:51.258Z,97273.25
2023-02-04T03:16:18.173Z,97274.09
2023-02-04T03:18:44.936Z,97274.97
2023-02-04T03:21:11.549Z,97267.79
2023-02-04T03:23:38.504Z,97274.20
2023-02-04T03:26:05.781Z,97269.06
2023-02-04T03:28:33.271Z,97277.74
2023-02-04T03:30:59.938Z,97275.67
2023-02-04T03:33:28.414Z,97278.58
2023-02-04T03:35:54.998Z,97281.63
2023-02-04T03:38:21.440Z,97285.29
2023-02-04T03:40:47.954Z,97279.70
2023-02-04T03:43:14.601Z,97276.79
2023-02-04T03:45:45.674Z,97283.36
2023-02-04T03:48:12.504Z,97286.98
2023-02-04T03:50:38.920Z,97286.48
2023-02-04T03:53:05.578Z,97286.94
2023-02-04T03:55:32.092Z,97292.55
2023-02-04T03:57:58.715Z,97294.02
2023-02-04T04:00:25.414Z,97297.48
2023-02-04T04:02:52.273Z,97302.89
2023-02-04T04:05:19.295Z,97311.73
2023-02-04T04:07:45.953Z,97320.29
2023-02-04T04:10:12.897Z,97317.48
2023-02-04T04:12:39.432Z,97326.30
2023-02-04T04:15:06.692Z,97333.06
2023-02-04T04:17:33.214Z,97339.12
2023-02-04T04:19:59.655Z,97348.45
2023-02-04T04:22:26.396Z,97350.96
2023-02-04T04:24:53.201Z,97358.60
2023-02-04T04:27:19.677Z,97362.67
2023-02-04T04:29:46.135Z,97365.84
2023-02-04T04:32:12.668Z,97375.25
2023-02-04T04:34:39.079Z,97380.53
2023-02-04T04:37:05.728Z,97382.31
2023-02-04T04:39:32.215Z,97391.98
2023-02-04T04:41:58.707Z,97406.58
2023-02-04T04:44:25.285Z,97407.21
2023-02-04T04:46:51.943Z,97405.14
2023-02-04T04:49:18.375Z,97414.15
2023-02-04T04:51:44.899Z,97418.73
2023-02-04T04:54:11.347Z,97428.30
2023-02-04T04:56:37.782Z,97431.96
2023-02-04T04:59:04.835Z,97439.41
2023-02-04T05:01:31.540Z,97445.48
2023-02-04T05:03:58.187Z,97448.11
2023-02-04T05:06:25.465Z,97460.95
2023-02-04T05:08:52.700Z,97471.94
2023-02-04T05:11:19.402Z,97477.98
2023-02-04T05:13:46.705Z,97478.41
2023-02-04T05:16:13.468Z,97481.42
2023-02-04T05:18:41.035Z,97492.90
2023-02-04T05:21:08.591Z,97492.79
2023-02-04T05:23:35.424Z,97505.09
2023-02-04T05:26:01.813Z,97527.05
2023-02-04T05:28:28.407Z,97539.45
2023-02-04T05:30:54.872Z,97563.91
2023-02-04T05:33:21.377Z,97580.50
2023-02-04T05:35:49.852Z,97590.39
2023-02-04T05:38:16.442Z,97602.55
2023-02-04T05:40:42.871Z,97619.79
2023-02-04T05:43:09.306Z,97633.94
2023-02-04T05:45:35.898Z,97653.52
2023-02-04T05:48:02.467Z,97672.36
2023-02-04T05:50:28.909Z,97682.02
2023-02-04T05:52:55.332Z,97699.54
2023-02-04T05:55:21.761Z,97720.60
2023-02-04T05:57:48.419Z,97739.86
2023-02-04T06:00:15.107Z,97758.92
2023-02-04T06:02:41.810Z,97777.13
2023-02-04T06:05:08.790Z,97796.20
2023-02-04T06:07:35.956Z,97807.88
2023-02-04T06:10:02.698Z,97829.83
2023-02-04T06:12:29.295Z,97849.31
2023-02-04T06:14:55.694Z,97853.17
2023-02-04T06:17:22.116Z,97862.39
2023-02-04T06:19:48.739Z,97884.39
2023-02-04T06:22:15.172Z,97896.54
2023-02-04T06:24:41.700Z,97898.98
2023-02-04T06:27:08.341Z,97926.67
2023-02-04T06:29:34.874Z,97944.85
2023-02-04T06:32:01.516Z,97959.05
2023-02-04T06:34:28.395Z,97975.48
2023-02-04T06:36:54.904Z,97987.83
2023-02-04T06:39:21.313Z,97999.97
2023-02-04T06:41:47.780Z,97999.01
2023-02-04T06:44:14.326Z,98020.53
2023-02-04T06:46:40.827Z,98025.88
2023-02-04T06:49:07.711Z,98052.48
2023-02-04T06:51:34.264Z,98057.98
2023-02-04T06:54:01.102Z,98071.64
2023-02-04T06:56:27.577Z,98085.62
2023-02-04T06:58:54.076Z,98114.98
2023-02-04T07:01:20.526Z,98118.77
2023-02-04T07:03:47.056Z,98142.80
2023-02-04T07:06:13.696Z,98146.24
2023-02-04T07:08:40.111Z,98150.20
2023-02-04T07:11:06.903Z,98172.18
2023-02-04T07:13:33.417Z,98192.45
2023-02-04T07:15:59.959Z,98200.45
2023-02-04T07:18:26.603Z,98205.05
2023-02-04T07:20:53.122Z,98216.14
2023-02-04T07:23:19.765Z,98233.33
2023-02-04T07:25:46.307Z,98252.59
2023-02-04T07:28:12.808Z,98267.56
2023-02-04T07:30:39.508Z,98279.82
2023-02-04T07:33:06.128Z,98292.25
2023-02-04T07:35:32.588Z,98304.02
2023-02-04T07:37:58.995Z,98319.35
2023-02-04T07:40:25.470Z,98328.38
2023-02-04T07:42:52.162Z,98339.30
2023-02-04T07:45:18.637Z,98342.35
2023-02-04T07:47:45.243Z,98357.35
2023-02-04T07:50:11.867Z,98366.89
2023-02-04T07:52:38.414Z,98389.70
2023-02-04T07:55:06.640Z,98399.58
2023-02-04T07:57:33.185Z,98404.17
2023-02-04T08:00:00.111Z,98420.14
2023-02-04T08:02:27.494Z,98424.23
2023-02-04T08:04:54.177Z,98431.20
2023-02-04T08:07:20.657Z,98459.80
2023-02-04T08:09:47.161Z,98448.91
2023-02-04T08:12:13.891Z,98485.85
2023-02-04T08:14:40.298Z,98488.08
2023-02-04T08:17:06.758Z,98497.64
2023-02-04T08:19:33.530Z,98509.39
2023-02-04T08:22:00.021Z,98522.67
2023-02-04T08:24:26.473Z,98524.88
2023-02-04T08:26:53.064Z,98534.24
2023-02-04T08:29:20.092Z,98534.58
2023-02-04T08:31:47.083Z,98556.53
2023-02-04T08:34:13.617Z,98551.09
2023-02-04T08:36:40.096Z,98581.02
2023-02-04T08:39:06.714Z,98603.15
2023-02-04T08:41:33.170Z,98597.70
2023-02-04T08:43:59.618Z,98618.12
2023-02-04T08:46:26.291Z,98616.59
2023-02-04T08:48:52.809Z,98627.29
2023-02-04T08:51:19.252Z,98618.42
2023-02-04T08:53:49.330Z,98636.98
2023-02-04T08:56:15.781Z,98637.34
2023-02-04T08:58:43.467Z,98648.21
2023-02-04T09:01:10.447Z,98649.40
2023-02-04T09:03:37.890Z,98662.35
2023-02-04T09:06:06.165Z,98676.99
2023-02-04T09:08:32.840Z,98674.61
2023-02-04T09:10:59.350Z,98687.55
2023-02-04T09:13:25.875Z,98686.02
2023-02-04T09:15:54.039Z,98702.02
2023-02-04T09:18:21.045Z,98709.52
2023-02-04T09:20:48.787Z,98716.33
2023-02-04T09:23:16.135Z,98716.15
2023-02-04T09:25:44.227Z,98736.73
2023-02-04T09:28:12.022Z,98748.98
2023-02-04T09:30:39.853Z,98748.27
2023-02-04T09:33:07.040Z,98754.38
2023-02-04T09:35:33.528Z,98767.31
2023-02-04T09:38:00.029Z,98779.21
2023-02-04T09:40:28.507Z,98784.31
2023-02-04T09:42:56.668Z,98787.39
2023-02-04T09:45:29.877Z,98794.38
2023-02-04T09:47:59.151Z,98808.02
2023-02-04T09:50:28.226Z,98816.33
2023-02-04T09:52:59.126Z,98824.48
2023-02-04T09:55:30.341Z,98830.08
2023-02-04T09:57:56.837Z,98831.44
2023-02-04T10:00:26.910Z,98833.30
2023-02-04T10:02:53.545Z,98835.33
2023-02-04T10:05:30.936Z,98843.52
2023-02-04T10:07:58.771Z,98841.45
2023-02-04T10:10:27.592Z,98844.50
2023-02-04T10:12:58.800Z,98840.89
2023-02-04T10:15:26.307Z,98846.50
2023-02-04T10:17:58.680Z,98847.89
2023-02-04T10:20:25.527Z,98849.47
2023-02-04T10:22:54.220Z,98849.17
2023-02-04T10:25:23.810Z,98855.17
2023-02-04T10:27:55.958Z,98860.47
2023-02-04T10:30:27.309Z,98862.70
2023-02-04T10:32:54.639Z,98879.91
2023-02-04T10:35:22.855Z,98877.86
2023-02-04T10:38:03.826Z,98881.61
2023-02-04T10:40:32.974Z,98880.77
2023-02-04T10:43:00.254Z,98888.27
2023-02-04T10:45:29.978Z,98880.77
2023-02-04T10:47:57.411Z,98888.77
2023-02-04T10:50:26.392Z,98887.75
2023-02-04T10:52:58.800Z,98895.23
2023-02-04T10:55:25.278Z,98894.38
2023-02-04T10:57:52.861Z,98902.56
2023-02-04T11:00:20.745Z,98900.86
2023-02-04T11:03:05.059Z,98899.34
2023-02-04T11:05:34.338Z,98902.73
2023-02-04T11:08:02.181Z,98915.35
2023-02-04T11:10:31.842Z,98913.46
2023-02-04T11:12:58.592Z,98911.77
2023-02-04T11:15:44.868Z,98921.16
2023-02-04T11:18:13.329Z,98920.11
2023-02-04T11:20:40.485Z,98907.34
2023-02-04T11:23:25.711Z,98906.34
2023-02-04T11:26:07.663Z,98913.48
2023-02-04T11:28:55.914Z,98911.61
2023-02-04T11:31:22.418Z,98894.56
2023-02-04T11:33:50.955Z,98919.46
2023-02-04T11:36:18.010Z,98919.10
2023-02-04T11:38:47.245Z,98932.56
2023-02-04T11:41:28.820Z,98920.46
2023-02-04T11:43:56.548Z,98931.54
2023-02-04T11:46:23.913Z,98924.90
2023-02-04T11:48:55.144Z,98935.98
2023-02-04T11:51:28.743Z,98931.38
2023-02-04T11:53:55.482Z,98938.70
2023-02-04T11:56:23.474Z,98939.55
2023-02-04T11:58:51.344Z,98952.84
2023-02-04T12:01:19.793Z,98955.73
2023-02-04T12:03:48.977Z,98961.19
2023-02-04T12:06:23.784Z,98960.00
2023-02-04T12:08:50.515Z,98955.73
2023-02-04T12:11:29.387Z,98969.54
2023-02-04T12:13:58.392Z,98967.50
2023-02-04T12:16:25.662Z,98964.94
2023-02-04T12:18:52.201Z,98976.88
2023-02-04T12:21:19.078Z,98982.67
2023-02-04T12:23:45.506Z,98977.55
2023-02-04T12:26:12.565Z,98987.11
2023-02-04T12:28:39.100Z,98983.00
2023-02-04T12:31:05.658Z,98988.11
2023-02-04T12:33:32.478Z,98991.00
2023-02-04T12:35:59.117Z,98996.60
2023-02-04T12:38:25.593Z,98994.56
2023-02-04T12:40:52.200Z,99001.55
2023-02-04T12:43:18.744Z,99000.70
2023-02-04T12:45:45.196Z,99011.45
2023-02-04T12:48:12.475Z,99005.48
2023-02-04T12:50:39.072Z,99015.55
2023-02-04T12:53:05.508Z,99022.53
2023-02-04T12:55:32.761Z,99020.47
2023-02-04T12:57:59.460Z,99038.99
2023-02-04T13:00:25.939Z,99038.29
2023-02-04T13:02:52.377Z,99040.30
2023-02-04T13:05:18.912Z,99041.98
2023-02-04T13:07:45.345Z,99048.27
2023-02-04T13:10:15.163Z,99051.46
2023-02-04T13:12:41.829Z,99054.19
2023-02-04T13:15:09.272Z,99065.95
2023-02-04T13:17:36.325Z,99063.72
2023-02-04T13:20:03.680Z,99067.80
2023-02-04T13:22:30.333Z,99076.96
2023-02-04T13:24:56.826Z,99077.14
2023-02-04T13:27:23.404Z,99079.88
2023-02-04T13:29:49.864Z,99092.48
2023-02-04T13:32:16.379Z,99092.88
2023-02-04T13:34:42.801Z,99090.86
2023-02-04T13:37:09.253Z,99101.45
2023-02-04T13:39:35.702Z,99106.39
2023-02-04T13:42:04.376Z,99113.39
2023-02-04T13:44:30.981Z,99109.13
2023-02-04T13:46:57.595Z,99117.62
2023-02-04T13:49:24.113Z,99115.89
2023-02-04T13:51:50.577Z,99120.65
2023-02-04T13:54:17.040Z,99129.32
2023-02-04T13:56:43.511Z,99145.83
2023-02-04T13:59:10.156Z,99144.02
2023-02-04T14:01:36.695Z,99143.59
2023-02-04T14:04:03.642Z,99149.39
2023-02-04T14:06:30.139Z,99156.70
2023-02-04T14:08:56.719Z,99161.81
2023-02-04T14:11:23.154Z,99162.98
2023-02-04T14:13:49.592Z,99173.67
2023-02-04T14:16:16.360Z,99172.06
2023-02-04T14:18:42.882Z,99175.91
2023-02-04T14:21:09.403Z,99175.83
2023-02-04T14:23:36.045Z,99180.20
2023-02-04T14:26:02.697Z,99191.05
2023-02-04T14:28:29.432Z,99184.71
2023-02-04T14:30:55.995Z,99180.42
2023-02-04T14:33:23.028Z,99188.05
2023-02-04T14:35:49.565Z,99185.65
2023-02-04T14:38:16.114Z,99195.16
2023-02-04T14:40:44.884Z,99204.13
2023-02-04T14:43:12.262Z,99208.38
2023-02-04T14:45:39.973Z,99207.83
2023-02-04T14:48:07.166Z,99213.42
2023-02-04T14:50:34.314Z,99210.85
2023-02-04T14:53:01.180Z,99211.36
2023-02-04T14:55:27.719Z,99221.02
2023-02-04T14:57:54.387Z,99224.06
2023-02-04T15:00:21.507Z,99227.10
2023-02-04T15:02:48.048Z,99221.97
2023-02-04T15:05:14.993Z,99224.33
2023-02-04T15:07:41.742Z,99228.89
2023-02-04T15:10:09.864Z,99221.88
2023-02-04T15:12:36.661Z,99233.25
2023-02-04T15:15:04.529Z,99232.73
2023-02-04T15:17:31.172Z,99249.88
2023-02-04T15:19:57.811Z,99247.50
2023-02-04T15:22:24.326Z,99241.38
2023-02-04T15:24:50.895Z,99253.43
2023-02-04T15:27:17.573Z,99252.90
2023-02-04T15:29:44.166Z,99262.41
2023-02-04T15:32:10.711Z,99267.52
2023-02-04T15:34:37.256Z,99274.47
2023-02-04T15:37:03.933Z,99274.62
2023-02-04T15:39:30.582Z,99275.80
2023-02-04T15:41:57.284Z,99270.52
2023-02-04T15:44:23.947Z,99268.80
2023-02-04T15:46:50.571Z,99277.96
2023-02-04T15:49:16.971Z,99273.88
2023-02-04T15:51:43.432Z,99283.41
2023-02-04T15:54:09.974Z,99282.03
2023-02-04T15:56:36.503Z,99291.18
2023-02-04T15:59:03.157Z,99289.59
2023-02-04T16:01:29.934Z,99303.79
2023-02-04T16:03:56.386Z,99307.98
2023-02-04T16:06:23.802Z,99304.05
2023-02-04T16:08:50.338Z,99302.64
2023-02-04T16:11:17.005Z,99312.27
2023-02-04T16:13:43.517Z,99319.48
2023-02-04T16:16:09.973Z,99321.75
2023-02-04T16:18:36.597Z,99326.43
2023-02-04T16:21:03.249Z,99327.20
2023-02-04T16:23:29.675Z,99327.99
2023-02-04T16:25:56.316Z,99335.10
2023-02-04T16:28:22.820Z,99336.12
2023-02-04T16:30:49.600Z,99333.04
2023-02-04T16:33:16.166Z,99335.90
2023-02-04T16:35:58.348Z,99337.80
2023-02-04T16:38:25.284Z,99336.42
2023-02-04T16:40:52.025Z,99336.96
2023-02-04T16:43:18.577Z,99339.25
2023-02-04T16:45:45.024Z,99340.62
2023-02-04T16:48:11.751Z,99337.44
2023-02-04T16:50:38.395Z,99333.94
2023-02-04T16:53:05.335Z,99335.70
2023-02-04T16:55:32.638Z,99340.80
2023-02-04T16:57:59.706Z,99340.33
2023-02-04T17:00:26.483Z,99345.33
2023-02-04T17:02:53.070Z,99354.89
2023-02-04T17:05:20.067Z,99354.94
2023-02-04T17:07:46.609Z,99355.01
2023-02-04T17:10:13.250Z,99356.74
2023-02-04T17:12:39.703Z,99360.02
2023-02-04T17:15:06.838Z,99354.62
2023-02-04T17:17:33.372Z,99363.48
2023-02-04T17:19:59.926Z,99368.95
2023-02-04T17:22:26.447Z,99366.22
2023-02-04T17:24:53.205Z,99364.71
2023-02-04T17:27:19.692Z,99370.31
2023-02-04T17:29:46.127Z,99365.55
2023-02-04T17:32:12.522Z,99367.92
2023-02-04T17:34:39.065Z,99362.65
2023-02-04T17:37:05.522Z,99369.77
2023-02-04T17:39:31.981Z,99362.11
2023-02-04T17:41:58.480Z,99376.72
2023-02-04T17:44:27.109Z,99381.98
2023-02-04T17:46:54.517Z,99381.95
2023-02-04T17:49:21.166Z,99379.20
2023-02-04T17:51:47.908Z,99379.20
2023-02-04T17:54:14.748Z,99382.55
2023-02-04T17:56:41.393Z,99380.66
2023-02-04T17:59:11.325Z,99380.96
2023-02-04T18:01:38.433Z,99382.14
2023-02-04T18:04:11.630Z,99384.52
2023-02-04T18:06:38.197Z,99384.02
2023-02-04T18:09:14.875Z,99384.66
2023-02-04T18:11:41.743Z,99377.34
2023-02-04T18:14:16.268Z,99386.00
2023-02-04T18:16:44.153Z,99379.20
2023-02-04T18:19:28.374Z,99388.36
2023-02-04T18:21:55.709Z,99388.02
2023-02-04T18:24:34.764Z,99381.70
2023-02-04T18:27:08.650Z,99382.08
2023-02-04T18:29:44.019Z,99385.44
2023-02-04T18:32:25.795Z,99387.46
2023-02-04T18:34:54.977Z,99381.32
2023-02-04T18:37:32.315Z,99386.95
2023-02-04T18:40:10.824Z,99389.83
2023-02-04T18:42:39.996Z,99389.15
2023-02-04T18:45:31.254Z,99394.39
2023-02-04T18:48:00.743Z,99397.59
2023-02-04T18:50:30.674Z,99384.33
2023-02-04T18:53:23.312Z,99394.54
2023-02-04T18:55:52.001Z,99388.93
2023-02-04T18:58:27.760Z,99400.66
2023-02-04T19:01:20.415Z,99398.13
2023-02-04T19:03:50.508Z,99403.77
2023-02-04T19:06:30.090Z,99402.23
2023-02-04T19:09:10.431Z,99401.23
2023-02-04T19:11:40.675Z,99402.71
2023-02-04T19:14:26.032Z,99397.75
2023-02-04T19:16:54.219Z,99407.72
2023-02-04T19:19:55.787Z,99415.30
2023-02-04T19:22:45.870Z,99411.38
2023-02-04T19:25:24.781Z,99414.56
2023-02-04T19:27:55.170Z,99426.10
2023-02-04T19:30:28.178Z,99420.13
2023-02-04T19:32:59.486Z,99427.23
2023-02-04T19:35:35.422Z,99425.83
2023-02-04T19:38:29.292Z,99441.92
2023-02-04T19:40:55.938Z,99448.16
2023-02-04T19:43:34.252Z,99450.36
2023-02-04T19:46:02.185Z,99455.80
2023-02-04T19:48:37.850Z,99454.77
2023-02-04T19:51:21.119Z,99457.50
2023-02-04T19:53:48.868Z,99462.92
2023-02-04T19:56:41.796Z,99466.15
2023-02-04T19:59:24.154Z,99471.40
2023-02-04T20:02:23.875Z,99468.61
2023-02-04T20:04:53.994Z,99474.66
2023-02-04T20:07:26.201Z,99477.98
2023-02-04T20:10:22.515Z,99474.23
2023-02-04T20:12:52.326Z,99480.66
2023-02-04T20:15:21.115Z,99477.27
2023-02-04T20:17:49.706Z,99477.11
2023-02-04T20:20:31.716Z,99483.02
2023-02-04T20:23:17.678Z,99481.46
2023-02-04T20:25:47.439Z,99496.05
2023-02-04T20:28:36.897Z,99497.58
2023-02-04T20:31:17.021Z,99498.55
2023-02-04T20:33:53.728Z,99495.65
2023-02-04T20:36:26.200Z,99499.53
2023-02-04T20:39:16.952Z,99504.30
2023-02-04T20:41:43.593Z,99512.48
2023-02-04T20:44:23.205Z,99531.83
2023-02-04T20:46:49.745Z,99543.21
2023-02-04T20:49:24.800Z,99528.85
2023-02-04T20:51:58.934Z,99524.60
2023-02-04T20:54:29.543Z,99526.55
2023-02-04T20:57:11.460Z,99520.60
2023-02-04T20:59:37.977Z,99533.16
2023-02-04T21:02:18.550Z,99538.66
2023-02-04T21:04:45.312Z,99535.08
2023-02-04T21:07:20.743Z,99552.31
2023-02-04T21:09:47.807Z,99541.73
2023-02-04T21:12:15.366Z,99541.63
2023-02-04T21:14:42.405Z,99538.11
2023-02-04T21:17:09.066Z,99534.75
2023-02-04T21:19:35.572Z,99532.55
2023-02-04T21:22:02.555Z,99532.92
2023-02-04T21:24:29.480Z,99537.87
2023-02-04T21:26:55.922Z,99542.50
2023-02-04T21:29:22.850Z,99544.89
2023-02-04T21:31:49.936Z,99544.81
2023-02-04T21:34:16.381Z,99551.66
2023-02-04T21:36:42.900Z,99549.66
2023-02-04T21:39:09.648Z,99555.96
2023-02-04T21:41:36.066Z,99554.71
2023-02-04T21:44:02.625Z,99562.41
2023-02-04T21:46:29.088Z,99565.70
2023-02-04T21:48:55.904Z,99566.77
2023-02-04T21:51:22.551Z,99566.52
2023-02-04T21:53:49.088Z,99560.01
2023-02-04T21:56:15.623Z,99565.89
2023-02-04T21:58:42.204Z,99558.85
2023-02-04T22:01:08.656Z,99556.39
2023-02-04T22:03:35.169Z,99550.02
2023-02-04T22:06:01.804Z,99546.98
2023-02-04T22:08:28.318Z,99550.23
2023-02-04T22:10:54.849Z,99549.34
2023-02-04T22:13:21.480Z,99543.36
2023-02-04T22:15:48.165Z,99551.19
2023-02-04T22:18:14.888Z,99550.78
2023-02-04T22:20:41.670Z,99555.94
2023-02-04T22:23:08.502Z,99557.77
2023-02-04T22:25:35.333Z,99563.80
2023-02-04T22:28:02.153Z,99567.05
2023-02-04T22:30:28.692Z,99570.08
2023-02-04T22:32:55.257Z,99577.70
2023-02-04T22:35:21.988Z,99577.52
2023-02-04T22:37:48.449Z,99581.06
2023-02-04T22:40:14.959Z,99587.86
2023-02-04T22:42:41.555Z,99591.98
2023-02-04T22:45:08.753Z,99600.16
2023-02-04T22:47:35.267Z,99598.02
2023-02-04T22:50:01.823Z,99596.90
2023-02-04T22:52:28.412Z,99601.42
2023-02-04T22:54:54.876Z,99599.79
2023-02-04T22:57:21.441Z,99600.01
2023-02-04T22:59:47.954Z,99602.24
2023-02-04T23:02:14.432Z,99603.95
2023-02-04T23:04:43.604Z,99608.60
2023-02-04T23:07:11.598Z,99612.85
2023-02-04T23:09:38.017Z,99616.06
2023-02-04T23:12:05.145Z,99618.27
2023-02-04T23:14:31.608Z,99621.69
2023-02-04T23:16:58.130Z,99623.41
2023-02-04T23:19:24.583Z,99632.45
2023-02-04T23:21:51.084Z,99634.84
2023-02-04T23:24:17.552Z,99640.96
2023-02-04T23:26:44.058Z,99642.17
2023-02-04T23:29:10.621Z,99648.32
2023-02-04T23:31:37.081Z,99646.44
2023-02-04T23:34:03.604Z,99653.54
2023-02-04T23:36:30.063Z,99666.05
2023-02-04T23:38:56.608Z,99664.19
2023-02-04T23:41:23.098Z,99670.65
2023-02-04T23:43:49.964Z,99677.40
2023-02-04T23:46:16.567Z,99677.05
2023-02-04T23:48:43.252Z,99676.36
2023-02-04T23:51:09.671Z,99677.71
2023-02-04T23:53:36.119Z,99677.05
2023-02-04T23:56:03.065Z,99677.85
2023-02-04T23:58:29.471Z,99678.86
